sensor_id;sensor_type;location;lat;lon;timestamp;P1;durP1;ratioP1;P2;durP2;ratioP2
43819;SDS011;59678;52.476;6.046;2022-07-21T00:01:56;27.90;;;22.50;;
43819;SDS011;59678;52.476;6.046;2022-07-21T00:04:21;32.25;;;23.20;;
43819;SDS011;59678;52.476;6.046;2022-07-21T00:06:46;23.98;;;21.10;;
43819;SDS011;59678;52.476;6.046;2022-07-21T00:09:12;29.38;;;22.17;;
43819;SDS011;59678;52.476;6.046;2022-07-21T00:11:38;19.38;;;15.90;;
43819;SDS011;59678;52.476;6.046;2022-07-21T00:14:04;25.27;;;21.58;;
43819;SDS011;59678;52.476;6.046;2022-07-21T00:16:29;25.05;;;22.25;;
43819;SDS011;59678;52.476;6.046;2022-07-21T00:18:55;25.98;;;18.95;;
43819;SDS011;59678;52.476;6.046;2022-07-21T00:21:20;24.07;;;20.83;;
43819;SDS011;59678;52.476;6.046;2022-07-21T00:23:45;23.03;;;19.23;;
43819;SDS011;59678;52.476;6.046;2022-07-21T00:26:10;21.98;;;19.60;;
43819;SDS011;59678;52.476;6.046;2022-07-21T00:28:36;27.08;;;22.45;;
43819;SDS011;59678;52.476;6.046;2022-07-21T00:31:01;25.80;;;23.07;;
43819;SDS011;59678;52.476;6.046;2022-07-21T00:33:26;31.90;;;21.27;;
43819;SDS011;59678;52.476;6.046;2022-07-21T00:35:51;25.00;;;22.23;;
43819;SDS011;59678;52.476;6.046;2022-07-21T00:38:16;29.30;;;21.83;;
43819;SDS011;59678;52.476;6.046;2022-07-21T00:40:42;22.03;;;19.37;;
43819;SDS011;59678;52.476;6.046;2022-07-21T00:43:07;20.13;;;18.00;;
43819;SDS011;59678;52.476;6.046;2022-07-21T00:45:32;22.10;;;19.63;;
43819;SDS011;59678;52.476;6.046;2022-07-21T00:47:57;23.57;;;18.67;;
43819;SDS011;59678;52.476;6.046;2022-07-21T00:50:22;23.90;;;19.23;;
43819;SDS011;59678;52.476;6.046;2022-07-21T00:52:48;22.40;;;18.73;;
43819;SDS011;59678;52.476;6.046;2022-07-21T00:55:14;23.88;;;18.70;;
43819;SDS011;59678;52.476;6.046;2022-07-21T00:57:40;24.80;;;18.50;;
43819;SDS011;59678;52.476;6.046;2022-07-21T01:00:06;26.73;;;19.52;;
43819;SDS011;59678;52.476;6.046;2022-07-21T01:02:32;19.48;;;15.65;;
43819;SDS011;59678;52.476;6.046;2022-07-21T01:05:01;19.42;;;16.40;;
43819;SDS011;59678;52.476;6.046;2022-07-21T01:07:26;21.10;;;15.48;;
43819;SDS011;59678;52.476;6.046;2022-07-21T01:09:51;19.30;;;16.30;;
43819;SDS011;59678;52.476;6.046;2022-07-21T01:12:17;20.90;;;16.90;;
43819;SDS011;59678;52.476;6.046;2022-07-21T01:14:42;22.73;;;18.33;;
43819;SDS011;59678;52.476;6.046;2022-07-21T01:17:07;20.45;;;18.30;;
43819;SDS011;59678;52.476;6.046;2022-07-21T01:19:32;21.77;;;15.17;;
43819;SDS011;59678;52.476;6.046;2022-07-21T01:21:58;17.23;;;15.17;;
43819;SDS011;59678;52.476;6.046;2022-07-21T01:24:23;20.77;;;17.10;;
43819;SDS011;59678;52.476;6.046;2022-07-21T01:26:49;20.13;;;17.35;;
43819;SDS011;59678;52.476;6.046;2022-07-21T01:29:16;22.92;;;17.60;;
43819;SDS011;59678;52.476;6.046;2022-07-21T01:31:42;27.92;;;20.20;;
43819;SDS011;59678;52.476;6.046;2022-07-21T01:34:07;25.10;;;19.98;;
43819;SDS011;59678;52.476;6.046;2022-07-21T01:36:33;24.20;;;21.38;;
43819;SDS011;59678;52.476;6.046;2022-07-21T01:38:59;25.02;;;22.45;;
43819;SDS011;59678;52.476;6.046;2022-07-21T01:41:42;22.43;;;20.03;;
43819;SDS011;59678;52.476;6.046;2022-07-21T01:44:09;25.63;;;22.77;;
43819;SDS011;59678;52.476;6.046;2022-07-21T01:46:41;28.65;;;24.65;;
43819;SDS011;59678;52.476;6.046;2022-07-21T01:49:08;31.92;;;27.13;;
43819;SDS011;59678;52.476;6.046;2022-07-21T01:51:34;33.60;;;28.17;;
43819;SDS011;59678;52.476;6.046;2022-07-21T01:53:59;30.17;;;27.07;;
43819;SDS011;59678;52.476;6.046;2022-07-21T01:56:25;30.20;;;27.15;;
43819;SDS011;59678;52.476;6.046;2022-07-21T01:58:51;30.70;;;27.25;;
43819;SDS011;59678;52.476;6.046;2022-07-21T02:01:16;29.67;;;26.85;;
43819;SDS011;59678;52.476;6.046;2022-07-21T02:03:42;32.08;;;28.92;;
43819;SDS011;59678;52.476;6.046;2022-07-21T02:06:07;33.15;;;29.75;;
43819;SDS011;59678;52.476;6.046;2022-07-21T02:08:34;33.90;;;29.60;;
43819;SDS011;59678;52.476;6.046;2022-07-21T02:10:59;32.80;;;28.98;;
43819;SDS011;59678;52.476;6.046;2022-07-21T02:13:24;32.63;;;29.25;;
43819;SDS011;59678;52.476;6.046;2022-07-21T02:15:49;30.02;;;25.20;;
43819;SDS011;59678;52.476;6.046;2022-07-21T02:18:15;21.57;;;19.30;;
43819;SDS011;59678;52.476;6.046;2022-07-21T02:20:40;24.63;;;20.55;;
43819;SDS011;59678;52.476;6.046;2022-07-21T02:23:05;26.70;;;23.37;;
43819;SDS011;59678;52.476;6.046;2022-07-21T02:25:30;24.70;;;21.70;;
43819;SDS011;59678;52.476;6.046;2022-07-21T02:27:56;27.38;;;24.52;;
43819;SDS011;59678;52.476;6.046;2022-07-21T02:30:21;22.73;;;20.37;;
43819;SDS011;59678;52.476;6.046;2022-07-21T02:32:46;25.87;;;22.33;;
43819;SDS011;59678;52.476;6.046;2022-07-21T02:35:11;23.43;;;20.93;;
43819;SDS011;59678;52.476;6.046;2022-07-21T02:37:37;28.40;;;22.08;;
43819;SDS011;59678;52.476;6.046;2022-07-21T02:40:03;22.13;;;16.40;;
43819;SDS011;59678;52.476;6.046;2022-07-21T02:42:28;25.45;;;22.80;;
43819;SDS011;59678;52.476;6.046;2022-07-21T02:44:53;25.47;;;22.60;;
43819;SDS011;59678;52.476;6.046;2022-07-21T02:47:18;25.03;;;22.27;;
43819;SDS011;59678;52.476;6.046;2022-07-21T02:49:44;26.87;;;21.50;;
43819;SDS011;59678;52.476;6.046;2022-07-21T02:52:10;26.17;;;22.77;;
43819;SDS011;59678;52.476;6.046;2022-07-21T02:54:35;26.63;;;22.55;;
43819;SDS011;59678;52.476;6.046;2022-07-21T02:57:00;26.50;;;23.90;;
43819;SDS011;59678;52.476;6.046;2022-07-21T02:59:25;26.60;;;22.93;;
43819;SDS011;59678;52.476;6.046;2022-07-21T03:01:51;25.27;;;22.77;;
43819;SDS011;59678;52.476;6.046;2022-07-21T03:04:16;23.30;;;20.80;;
43819;SDS011;59678;52.476;6.046;2022-07-21T03:06:41;19.70;;;17.60;;
43819;SDS011;59678;52.476;6.046;2022-07-21T03:09:07;20.80;;;18.70;;
43819;SDS011;59678;52.476;6.046;2022-07-21T03:11:32;26.05;;;22.13;;
43819;SDS011;59678;52.476;6.046;2022-07-21T03:13:58;21.33;;;19.07;;
43819;SDS011;59678;52.476;6.046;2022-07-21T03:16:23;17.33;;;15.13;;
43819;SDS011;59678;52.476;6.046;2022-07-21T03:18:48;19.47;;;17.23;;
43819;SDS011;59678;52.476;6.046;2022-07-21T03:21:13;20.17;;;15.23;;
43819;SDS011;59678;52.476;6.046;2022-07-21T03:23:38;17.73;;;16.00;;
43819;SDS011;59678;52.476;6.046;2022-07-21T03:26:04;17.77;;;15.10;;
43819;SDS011;59678;52.476;6.046;2022-07-21T03:28:29;18.60;;;16.55;;
43819;SDS011;59678;52.476;6.046;2022-07-21T03:30:54;16.65;;;14.95;;
43819;SDS011;59678;52.476;6.046;2022-07-21T03:33:19;17.90;;;14.10;;
43819;SDS011;59678;52.476;6.046;2022-07-21T03:35:45;13.20;;;11.53;;
43819;SDS011;59678;52.476;6.046;2022-07-21T03:38:10;15.60;;;12.47;;
43819;SDS011;59678;52.476;6.046;2022-07-21T03:40:36;16.42;;;12.77;;
43819;SDS011;59678;52.476;6.046;2022-07-21T03:43:02;16.20;;;13.95;;
43819;SDS011;59678;52.476;6.046;2022-07-21T03:45:28;16.40;;;12.93;;
43819;SDS011;59678;52.476;6.046;2022-07-21T03:47:55;11.85;;;10.65;;
43819;SDS011;59678;52.476;6.046;2022-07-21T03:50:20;12.68;;;11.18;;
43819;SDS011;59678;52.476;6.046;2022-07-21T03:52:45;13.13;;;11.73;;
43819;SDS011;59678;52.476;6.046;2022-07-21T03:55:11;19.73;;;13.20;;
43819;SDS011;59678;52.476;6.046;2022-07-21T03:57:41;15.45;;;12.38;;
43819;SDS011;59678;52.476;6.046;2022-07-21T04:00:07;16.77;;;12.82;;
43819;SDS011;59678;52.476;6.046;2022-07-21T04:02:33;15.57;;;11.93;;
43819;SDS011;59678;52.476;6.046;2022-07-21T04:04:58;15.88;;;12.40;;
43819;SDS011;59678;52.476;6.046;2022-07-21T04:07:23;13.50;;;12.03;;
43819;SDS011;59678;52.476;6.046;2022-07-21T04:09:49;13.45;;;12.15;;
43819;SDS011;59678;52.476;6.046;2022-07-21T04:12:14;14.57;;;13.07;;
43819;SDS011;59678;52.476;6.046;2022-07-21T04:14:39;16.33;;;14.10;;
43819;SDS011;59678;52.476;6.046;2022-07-21T04:17:04;16.07;;;14.17;;
43819;SDS011;59678;52.476;6.046;2022-07-21T04:19:29;15.00;;;12.67;;
43819;SDS011;59678;52.476;6.046;2022-07-21T04:21:55;17.60;;;14.35;;
43819;SDS011;59678;52.476;6.046;2022-07-21T04:24:20;15.97;;;14.13;;
43819;SDS011;59678;52.476;6.046;2022-07-21T04:26:45;17.50;;;14.47;;
43819;SDS011;59678;52.476;6.046;2022-07-21T04:29:10;14.57;;;13.07;;
43819;SDS011;59678;52.476;6.046;2022-07-21T04:31:35;17.40;;;13.87;;
43819;SDS011;59678;52.476;6.046;2022-07-21T04:34:00;18.53;;;16.53;;
43819;SDS011;59678;52.476;6.046;2022-07-21T04:36:26;16.93;;;14.67;;
43819;SDS011;59678;52.476;6.046;2022-07-21T04:38:51;21.23;;;16.42;;
43819;SDS011;59678;52.476;6.046;2022-07-21T04:41:16;20.87;;;15.30;;
43819;SDS011;59678;52.476;6.046;2022-07-21T04:43:41;14.23;;;12.53;;
43819;SDS011;59678;52.476;6.046;2022-07-21T04:46:07;17.60;;;13.30;;
43819;SDS011;59678;52.476;6.046;2022-07-21T04:48:32;16.30;;;13.80;;
43819;SDS011;59678;52.476;6.046;2022-07-21T04:50:57;16.50;;;14.77;;
43819;SDS011;59678;52.476;6.046;2022-07-21T04:53:22;14.67;;;11.03;;
43819;SDS011;59678;52.476;6.046;2022-07-21T04:55:48;18.63;;;14.13;;
43819;SDS011;59678;52.476;6.046;2022-07-21T04:58:13;12.85;;;11.55;;
43819;SDS011;59678;52.476;6.046;2022-07-21T05:00:38;17.17;;;12.53;;
43819;SDS011;59678;52.476;6.046;2022-07-21T05:03:03;18.60;;;14.97;;
43819;SDS011;59678;52.476;6.046;2022-07-21T05:05:28;16.83;;;15.00;;
43819;SDS011;59678;52.476;6.046;2022-07-21T05:07:54;16.88;;;14.35;;
43819;SDS011;59678;52.476;6.046;2022-07-21T05:10:19;20.33;;;17.65;;
43819;SDS011;59678;52.476;6.046;2022-07-21T05:12:46;19.48;;;17.35;;
43819;SDS011;59678;52.476;6.046;2022-07-21T05:15:11;19.67;;;17.40;;
43819;SDS011;59678;52.476;6.046;2022-07-21T05:17:36;19.27;;;15.30;;
43819;SDS011;59678;52.476;6.046;2022-07-21T05:20:02;22.65;;;19.13;;
43819;SDS011;59678;52.476;6.046;2022-07-21T05:22:27;26.38;;;20.40;;
43819;SDS011;59678;52.476;6.046;2022-07-21T05:24:53;22.87;;;20.47;;
43819;SDS011;59678;52.476;6.046;2022-07-21T05:27:18;25.83;;;21.47;;
43819;SDS011;59678;52.476;6.046;2022-07-21T05:29:43;25.55;;;22.83;;
43819;SDS011;59678;52.476;6.046;2022-07-21T05:32:08;28.90;;;21.70;;
43819;SDS011;59678;52.476;6.046;2022-07-21T05:34:33;24.03;;;20.70;;
43819;SDS011;59678;52.476;6.046;2022-07-21T05:36:59;24.85;;;22.23;;
43819;SDS011;59678;52.476;6.046;2022-07-21T05:39:24;29.90;;;23.43;;
43819;SDS011;59678;52.476;6.046;2022-07-21T05:41:49;29.03;;;23.70;;
43819;SDS011;59678;52.476;6.046;2022-07-21T05:44:14;24.55;;;21.10;;
43819;SDS011;59678;52.476;6.046;2022-07-21T05:46:39;28.10;;;24.27;;
43819;SDS011;59678;52.476;6.046;2022-07-21T05:49:05;25.38;;;21.77;;
43819;SDS011;59678;52.476;6.046;2022-07-21T05:51:30;27.27;;;24.27;;
43819;SDS011;59678;52.476;6.046;2022-07-21T05:53:55;27.30;;;22.63;;
43819;SDS011;59678;52.476;6.046;2022-07-21T05:56:20;22.17;;;19.80;;
43819;SDS011;59678;52.476;6.046;2022-07-21T05:58:46;28.43;;;25.00;;
43819;SDS011;59678;52.476;6.046;2022-07-21T06:01:11;30.33;;;23.17;;
43819;SDS011;59678;52.476;6.046;2022-07-21T06:03:45;21.10;;;18.92;;
43819;SDS011;59678;52.476;6.046;2022-07-21T06:06:11;24.98;;;20.02;;
43819;SDS011;59678;52.476;6.046;2022-07-21T06:08:38;23.50;;;20.17;;
43819;SDS011;59678;52.476;6.046;2022-07-21T06:11:04;18.92;;;16.98;;
43819;SDS011;59678;52.476;6.046;2022-07-21T06:13:29;19.02;;;16.20;;
43819;SDS011;59678;52.476;6.046;2022-07-21T06:15:54;23.70;;;19.00;;
43819;SDS011;59678;52.476;6.046;2022-07-21T06:18:19;22.17;;;19.50;;
43819;SDS011;59678;52.476;6.046;2022-07-21T06:20:44;26.60;;;22.23;;
43819;SDS011;59678;52.476;6.046;2022-07-21T06:23:09;22.03;;;18.07;;
43819;SDS011;59678;52.476;6.046;2022-07-21T06:25:35;21.27;;;18.40;;
43819;SDS011;59678;52.476;6.046;2022-07-21T06:28:00;26.27;;;21.47;;
43819;SDS011;59678;52.476;6.046;2022-07-21T06:30:25;26.53;;;23.60;;
43819;SDS011;59678;52.476;6.046;2022-07-21T06:32:50;28.40;;;22.80;;
43819;SDS011;59678;52.476;6.046;2022-07-21T06:35:16;31.53;;;24.77;;
43819;SDS011;59678;52.476;6.046;2022-07-21T06:37:44;31.40;;;24.20;;
43819;SDS011;59678;52.476;6.046;2022-07-21T06:40:10;28.50;;;24.20;;
43819;SDS011;59678;52.476;6.046;2022-07-21T06:42:36;34.78;;;26.90;;
43819;SDS011;59678;52.476;6.046;2022-07-21T06:45:01;36.97;;;32.90;;
43819;SDS011;59678;52.476;6.046;2022-07-21T06:47:26;38.92;;;32.13;;
43819;SDS011;59678;52.476;6.046;2022-07-21T06:49:51;40.17;;;34.20;;
43819;SDS011;59678;52.476;6.046;2022-07-21T06:52:17;35.30;;;28.70;;
43819;SDS011;59678;52.476;6.046;2022-07-21T06:54:42;41.87;;;32.30;;
43819;SDS011;59678;52.476;6.046;2022-07-21T06:57:07;41.03;;;29.83;;
43819;SDS011;59678;52.476;6.046;2022-07-21T06:59:32;41.23;;;34.53;;
43819;SDS011;59678;52.476;6.046;2022-07-21T07:01:58;39.67;;;33.75;;
43819;SDS011;59678;52.476;6.046;2022-07-21T07:04:24;42.85;;;31.17;;
43819;SDS011;59678;52.476;6.046;2022-07-21T07:06:49;42.73;;;34.87;;
43819;SDS011;59678;52.476;6.046;2022-07-21T07:09:17;41.90;;;36.75;;
43819;SDS011;59678;52.476;6.046;2022-07-21T07:11:42;36.63;;;30.88;;
43819;SDS011;59678;52.476;6.046;2022-07-21T07:14:07;48.17;;;36.80;;
43819;SDS011;59678;52.476;6.046;2022-07-21T07:16:32;39.80;;;33.33;;
43819;SDS011;59678;52.476;6.046;2022-07-21T07:18:57;48.90;;;38.60;;
43819;SDS011;59678;52.476;6.046;2022-07-21T07:21:23;34.85;;;28.45;;
43819;SDS011;59678;52.476;6.046;2022-07-21T07:23:48;42.40;;;35.05;;
43819;SDS011;59678;52.476;6.046;2022-07-21T07:26:13;40.10;;;33.37;;
43819;SDS011;59678;52.476;6.046;2022-07-21T07:28:38;41.30;;;30.17;;
43819;SDS011;59678;52.476;6.046;2022-07-21T07:31:03;40.67;;;26.63;;
43819;SDS011;59678;52.476;6.046;2022-07-21T07:33:29;43.93;;;34.80;;
43819;SDS011;59678;52.476;6.046;2022-07-21T07:35:54;41.85;;;36.33;;
43819;SDS011;59678;52.476;6.046;2022-07-21T07:38:21;46.13;;;37.42;;
43819;SDS011;59678;52.476;6.046;2022-07-21T07:40:46;39.70;;;33.27;;
43819;SDS011;59678;52.476;6.046;2022-07-21T07:43:11;34.83;;;30.53;;
43819;SDS011;59678;52.476;6.046;2022-07-21T07:45:37;32.93;;;27.87;;
43819;SDS011;59678;52.476;6.046;2022-07-21T07:48:03;45.17;;;33.55;;
43819;SDS011;59678;52.476;6.046;2022-07-21T07:50:28;52.35;;;39.42;;
43819;SDS011;59678;52.476;6.046;2022-07-21T07:52:53;39.28;;;29.10;;
43819;SDS011;59678;52.476;6.046;2022-07-21T07:55:19;38.27;;;28.50;;
43819;SDS011;59678;52.476;6.046;2022-07-21T07:57:44;35.53;;;28.57;;
43819;SDS011;59678;52.476;6.046;2022-07-21T08:00:10;37.57;;;30.63;;
43819;SDS011;59678;52.476;6.046;2022-07-21T08:02:36;33.80;;;26.25;;
43819;SDS011;59678;52.476;6.046;2022-07-21T08:05:02;38.70;;;29.97;;
43819;SDS011;59678;52.476;6.046;2022-07-21T08:07:27;36.08;;;29.33;;
43819;SDS011;59678;52.476;6.046;2022-07-21T08:09:52;38.97;;;32.40;;
43819;SDS011;59678;52.476;6.046;2022-07-21T08:12:17;42.63;;;26.30;;
43819;SDS011;59678;52.476;6.046;2022-07-21T08:14:42;21.00;;;15.53;;
43819;SDS011;59678;52.476;6.046;2022-07-21T08:17:08;35.57;;;25.07;;
43819;SDS011;59678;52.476;6.046;2022-07-21T08:19:33;30.55;;;23.15;;
43819;SDS011;59678;52.476;6.046;2022-07-21T08:21:58;24.90;;;20.47;;
43819;SDS011;59678;52.476;6.046;2022-07-21T08:24:23;33.67;;;23.83;;
43819;SDS011;59678;52.476;6.046;2022-07-21T08:26:49;27.73;;;21.67;;
43819;SDS011;59678;52.476;6.046;2022-07-21T08:29:14;26.20;;;17.47;;
43819;SDS011;59678;52.476;6.046;2022-07-21T08:31:40;21.60;;;15.60;;
43819;SDS011;59678;52.476;6.046;2022-07-21T08:34:05;20.35;;;16.92;;
43819;SDS011;59678;52.476;6.046;2022-07-21T08:36:30;22.00;;;16.43;;
43819;SDS011;59678;52.476;6.046;2022-07-21T08:38:55;24.40;;;19.27;;
43819;SDS011;59678;52.476;6.046;2022-07-21T08:41:20;20.67;;;16.17;;
43819;SDS011;59678;52.476;6.046;2022-07-21T08:43:46;23.88;;;18.15;;
43819;SDS011;59678;52.476;6.046;2022-07-21T08:46:13;22.17;;;18.67;;
43819;SDS011;59678;52.476;6.046;2022-07-21T08:48:40;23.13;;;17.73;;
43819;SDS011;59678;52.476;6.046;2022-07-21T08:51:06;23.02;;;18.48;;
43819;SDS011;59678;52.476;6.046;2022-07-21T08:53:32;25.60;;;19.17;;
43819;SDS011;59678;52.476;6.046;2022-07-21T08:55:57;18.80;;;15.93;;
43819;SDS011;59678;52.476;6.046;2022-07-21T08:58:22;26.50;;;19.77;;
43819;SDS011;59678;52.476;6.046;2022-07-21T09:00:48;22.67;;;17.43;;
43819;SDS011;59678;52.476;6.046;2022-07-21T09:05:39;28.40;;;21.13;;
43819;SDS011;59678;52.476;6.046;2022-07-21T09:08:05;44.30;;;28.10;;
43819;SDS011;59678;52.476;6.046;2022-07-21T09:10:30;29.70;;;21.93;;
43819;SDS011;59678;52.476;6.046;2022-07-21T09:12:57;34.30;;;25.23;;
43819;SDS011;59678;52.476;6.046;2022-07-21T09:15:23;30.25;;;20.98;;
43819;SDS011;59678;52.476;6.046;2022-07-21T09:18:08;32.70;;;21.15;;
43819;SDS011;59678;52.476;6.046;2022-07-21T09:20:34;25.17;;;20.13;;
43819;SDS011;59678;52.476;6.046;2022-07-21T09:26:03;32.47;;;22.45;;
43819;SDS011;59678;52.476;6.046;2022-07-21T09:28:25;25.83;;;19.95;;
43819;SDS011;59678;52.476;6.046;2022-07-21T09:30:58;14.60;;;11.82;;
43819;SDS011;59678;52.476;6.046;2022-07-21T09:33:28;21.85;;;16.60;;
43819;SDS011;59678;52.476;6.046;2022-07-21T09:38:25;16.83;;;14.57;;
43819;SDS011;59678;52.476;6.046;2022-07-21T09:40:50;22.98;;;17.08;;
43819;SDS011;59678;52.476;6.046;2022-07-21T09:43:29;24.73;;;20.70;;
43819;SDS011;59678;52.476;6.046;2022-07-21T09:45:54;22.77;;;17.17;;
43819;SDS011;59678;52.476;6.046;2022-07-21T09:48:30;28.13;;;20.98;;
43819;SDS011;59678;52.476;6.046;2022-07-21T09:50:55;27.60;;;17.95;;
43819;SDS011;59678;52.476;6.046;2022-07-21T09:53:20;27.63;;;21.63;;
43819;SDS011;59678;52.476;6.046;2022-07-21T09:55:45;28.63;;;22.43;;
43819;SDS011;59678;52.476;6.046;2022-07-21T09:58:11;22.47;;;17.00;;
43819;SDS011;59678;52.476;6.046;2022-07-21T10:00:36;23.20;;;18.10;;
43819;SDS011;59678;52.476;6.046;2022-07-21T10:03:01;28.17;;;20.87;;
43819;SDS011;59678;52.476;6.046;2022-07-21T10:05:27;29.70;;;20.67;;
43819;SDS011;59678;52.476;6.046;2022-07-21T10:07:53;25.70;;;21.17;;
43819;SDS011;59678;52.476;6.046;2022-07-21T10:10:19;23.40;;;20.02;;
43819;SDS011;59678;52.476;6.046;2022-07-21T10:12:45;24.23;;;20.33;;
43819;SDS011;59678;52.476;6.046;2022-07-21T10:15:10;34.58;;;24.25;;
43819;SDS011;59678;52.476;6.046;2022-07-21T10:17:35;39.65;;;22.27;;
43819;SDS011;59678;52.476;6.046;2022-07-21T10:25:19;24.70;;;19.15;;
43819;SDS011;59678;52.476;6.046;2022-07-21T10:30:39;22.13;;;17.20;;
43819;SDS011;59678;52.476;6.046;2022-07-21T10:33:04;22.30;;;16.52;;
43819;SDS011;59678;52.476;6.046;2022-07-21T10:35:30;20.42;;;16.42;;
43819;SDS011;59678;52.476;6.046;2022-07-21T10:37:56;20.77;;;16.70;;
43819;SDS011;59678;52.476;6.046;2022-07-21T10:45:34;22.55;;;16.75;;
43819;SDS011;59678;52.476;6.046;2022-07-21T10:48:00;21.38;;;16.25;;
43819;SDS011;59678;52.476;6.046;2022-07-21T10:50:30;18.85;;;15.52;;
43819;SDS011;59678;52.476;6.046;2022-07-21T10:52:56;21.90;;;17.20;;
43819;SDS011;59678;52.476;6.046;2022-07-21T10:55:24;24.88;;;17.38;;
43819;SDS011;59678;52.476;6.046;2022-07-21T11:00:46;14.85;;;13.13;;
43819;SDS011;59678;52.476;6.046;2022-07-21T11:03:13;18.58;;;14.48;;
43819;SDS011;59678;52.476;6.046;2022-07-21T11:05:39;14.32;;;10.63;;
43819;SDS011;59678;52.476;6.046;2022-07-21T11:08:29;13.60;;;11.02;;
43819;SDS011;59678;52.476;6.046;2022-07-21T11:10:55;15.02;;;10.77;;
43819;SDS011;59678;52.476;6.046;2022-07-21T11:13:31;11.48;;;8.27;;
43819;SDS011;59678;52.476;6.046;2022-07-21T11:16:16;10.95;;;8.45;;
43819;SDS011;59678;52.476;6.046;2022-07-21T11:18:41;12.73;;;10.10;;
43819;SDS011;59678;52.476;6.046;2022-07-21T11:23:40;11.13;;;7.47;;
43819;SDS011;59678;52.476;6.046;2022-07-21T11:26:06;9.70;;;8.10;;
43819;SDS011;59678;52.476;6.046;2022-07-21T11:28:32;11.45;;;8.90;;
43819;SDS011;59678;52.476;6.046;2022-07-21T11:31:07;7.47;;;5.90;;
43819;SDS011;59678;52.476;6.046;2022-07-21T11:33:33;6.70;;;5.82;;
43819;SDS011;59678;52.476;6.046;2022-07-21T11:35:59;10.40;;;9.05;;
43819;SDS011;59678;52.476;6.046;2022-07-21T11:38:25;13.67;;;8.37;;
43819;SDS011;59678;52.476;6.046;2022-07-21T11:40:50;15.57;;;9.40;;
43819;SDS011;59678;52.476;6.046;2022-07-21T11:43:15;13.43;;;10.27;;
43819;SDS011;59678;52.476;6.046;2022-07-21T11:45:50;6.83;;;5.70;;
43819;SDS011;59678;52.476;6.046;2022-07-21T11:48:15;7.57;;;6.18;;
43819;SDS011;59678;52.476;6.046;2022-07-21T11:51:03;6.80;;;6.10;;
43819;SDS011;59678;52.476;6.046;2022-07-21T11:53:29;7.43;;;4.90;;
43819;SDS011;59678;52.476;6.046;2022-07-21T11:55:55;6.72;;;5.43;;
43819;SDS011;59678;52.476;6.046;2022-07-21T11:58:20;3.67;;;3.30;;
43819;SDS011;59678;52.476;6.046;2022-07-21T12:00:45;7.15;;;5.45;;
43819;SDS011;59678;52.476;6.046;2022-07-21T12:03:14;6.80;;;4.80;;
43819;SDS011;59678;52.476;6.046;2022-07-21T12:05:39;6.80;;;5.28;;
43819;SDS011;59678;52.476;6.046;2022-07-21T12:08:05;6.70;;;5.45;;
43819;SDS011;59678;52.476;6.046;2022-07-21T12:10:31;6.38;;;5.03;;
43819;SDS011;59678;52.476;6.046;2022-07-21T12:13:00;5.28;;;2.40;;
43819;SDS011;59678;52.476;6.046;2022-07-21T12:15:27;5.72;;;3.90;;
43819;SDS011;59678;52.476;6.046;2022-07-21T12:17:57;8.98;;;4.53;;
43819;SDS011;59678;52.476;6.046;2022-07-21T12:20:41;9.63;;;7.10;;
43819;SDS011;59678;52.476;6.046;2022-07-21T12:25:43;8.50;;;7.60;;
43819;SDS011;59678;52.476;6.046;2022-07-21T12:28:09;7.22;;;6.13;;
43819;SDS011;59678;52.476;6.046;2022-07-21T12:30:39;7.47;;;5.63;;
43819;SDS011;59678;52.476;6.046;2022-07-21T12:33:10;6.57;;;5.93;;
43819;SDS011;59678;52.476;6.046;2022-07-21T12:35:37;7.97;;;6.18;;
43819;SDS011;59678;52.476;6.046;2022-07-21T12:38:04;8.45;;;6.65;;
43819;SDS011;59678;52.476;6.046;2022-07-21T12:40:30;6.25;;;5.03;;
43819;SDS011;59678;52.476;6.046;2022-07-21T12:43:03;4.47;;;3.42;;
43819;SDS011;59678;52.476;6.046;2022-07-21T12:45:28;7.03;;;5.40;;
43819;SDS011;59678;52.476;6.046;2022-07-21T12:48:06;7.10;;;5.17;;
43819;SDS011;59678;52.476;6.046;2022-07-21T12:50:32;8.68;;;6.00;;
43819;SDS011;59678;52.476;6.046;2022-07-21T12:52:57;5.15;;;4.65;;
43819;SDS011;59678;52.476;6.046;2022-07-21T12:55:22;8.33;;;6.00;;
43819;SDS011;59678;52.476;6.046;2022-07-21T12:57:48;6.65;;;5.78;;
43819;SDS011;59678;52.476;6.046;2022-07-21T13:00:13;9.13;;;6.10;;
43819;SDS011;59678;52.476;6.046;2022-07-21T13:02:45;8.02;;;7.10;;
43819;SDS011;59678;52.476;6.046;2022-07-21T13:05:10;12.02;;;6.97;;
43819;SDS011;59678;52.476;6.046;2022-07-21T13:07:36;10.10;;;7.27;;
43819;SDS011;59678;52.476;6.046;2022-07-21T13:10:01;7.33;;;6.07;;
43819;SDS011;59678;52.476;6.046;2022-07-21T13:12:26;9.82;;;7.50;;
43819;SDS011;59678;52.476;6.046;2022-07-21T13:14:51;7.93;;;6.10;;
43819;SDS011;59678;52.476;6.046;2022-07-21T13:17:16;5.60;;;4.90;;
43819;SDS011;59678;52.476;6.046;2022-07-21T13:19:42;7.67;;;5.20;;
43819;SDS011;59678;52.476;6.046;2022-07-21T13:22:07;10.33;;;6.57;;
43819;SDS011;59678;52.476;6.046;2022-07-21T13:24:32;7.47;;;5.43;;
43819;SDS011;59678;52.476;6.046;2022-07-21T13:26:57;6.43;;;5.70;;
43819;SDS011;59678;52.476;6.046;2022-07-21T13:29:22;9.97;;;6.53;;
43819;SDS011;59678;52.476;6.046;2022-07-21T13:31:47;6.90;;;5.37;;
43819;SDS011;59678;52.476;6.046;2022-07-21T13:34:13;5.03;;;4.33;;
43819;SDS011;59678;52.476;6.046;2022-07-21T13:36:38;5.20;;;3.87;;
43819;SDS011;59678;52.476;6.046;2022-07-21T13:39:04;5.03;;;3.92;;
43819;SDS011;59678;52.476;6.046;2022-07-21T13:41:29;8.13;;;5.38;;
43819;SDS011;59678;52.476;6.046;2022-07-21T13:43:55;6.95;;;5.60;;
43819;SDS011;59678;52.476;6.046;2022-07-21T13:46:20;6.63;;;5.37;;
43819;SDS011;59678;52.476;6.046;2022-07-21T13:48:46;6.83;;;5.37;;
43819;SDS011;59678;52.476;6.046;2022-07-21T13:51:11;5.90;;;5.30;;
43819;SDS011;59678;52.476;6.046;2022-07-21T13:53:38;9.55;;;6.20;;
43819;SDS011;59678;52.476;6.046;2022-07-21T13:56:03;6.20;;;5.53;;
43819;SDS011;59678;52.476;6.046;2022-07-21T13:58:28;7.28;;;5.60;;
43819;SDS011;59678;52.476;6.046;2022-07-21T14:00:54;8.65;;;6.28;;
43819;SDS011;59678;52.476;6.046;2022-07-21T14:03:20;9.68;;;6.75;;
43819;SDS011;59678;52.476;6.046;2022-07-21T14:05:45;7.50;;;6.70;;
43819;SDS011;59678;52.476;6.046;2022-07-21T14:08:10;7.97;;;5.93;;
43819;SDS011;59678;52.476;6.046;2022-07-21T14:10:35;8.70;;;7.23;;
43819;SDS011;59678;52.476;6.046;2022-07-21T14:13:01;7.45;;;6.45;;
43819;SDS011;59678;52.476;6.046;2022-07-21T14:15:26;9.07;;;7.93;;
43819;SDS011;59678;52.476;6.046;2022-07-21T14:17:51;8.50;;;6.90;;
43819;SDS011;59678;52.476;6.046;2022-07-21T14:20:16;12.30;;;10.23;;
43819;SDS011;59678;52.476;6.046;2022-07-21T14:22:42;9.87;;;8.37;;
43819;SDS011;59678;52.476;6.046;2022-07-21T14:25:07;10.57;;;8.87;;
43819;SDS011;59678;52.476;6.046;2022-07-21T14:27:50;14.50;;;10.82;;
43819;SDS011;59678;52.476;6.046;2022-07-21T14:30:16;12.65;;;9.30;;
43819;SDS011;59678;52.476;6.046;2022-07-21T14:32:41;12.07;;;8.05;;
43819;SDS011;59678;52.476;6.046;2022-07-21T14:35:07;9.20;;;7.77;;
43819;SDS011;59678;52.476;6.046;2022-07-21T14:37:32;10.13;;;9.03;;
43819;SDS011;59678;52.476;6.046;2022-07-21T14:39:57;10.27;;;7.68;;
43819;SDS011;59678;52.476;6.046;2022-07-21T14:42:23;9.30;;;8.32;;
43819;SDS011;59678;52.476;6.046;2022-07-21T14:44:48;10.25;;;8.30;;
43819;SDS011;59678;52.476;6.046;2022-07-21T14:47:14;8.15;;;7.07;;
43819;SDS011;59678;52.476;6.046;2022-07-21T14:49:39;12.43;;;9.90;;